Terminal Aerodrome Forecast
Issued by NWS Paducah, KY

Home | Current Version | Previous Version | Text Only | Print | Product List | Glossary On
Versions: 1 2 3 4 5 6 7 8 9 10 11 12 13 14 15 16 17 18 19 20 21
000
FTUS43 KPAH 172320
TAFPAH
TAF
KPAH 172320Z 1800/1824 14003KT P6SM SKC
     FM180800 00000KT 4SM BR SCT015 BKN035
     FM181400 09005KT P6SM BKN040=

USA.gov is the U.S. government's official web portal to all federal, state and local government web resources and services.